createdAt,value
2018-06-12T00:00:23.795Z,8.77
2018-06-12T00:02:52.297Z,9.00
2018-06-12T00:05:20.500Z,9.70
2018-06-12T00:07:49.013Z,8.90
2018-06-12T00:10:17.538Z,10.80
2018-06-12T00:12:46.051Z,8.80
2018-06-12T00:15:14.573Z,9.00
2018-06-12T00:17:43.149Z,8.60
2018-06-12T00:20:11.661Z,10.20
2018-06-12T00:22:40.149Z,9.13
2018-06-12T00:25:08.657Z,9.70
2018-06-12T00:27:36.863Z,9.20
2018-06-12T00:30:05.034Z,9.23
2018-06-12T00:32:33.521Z,9.33
2018-06-12T00:35:01.711Z,9.90
2018-06-12T00:37:29.923Z,8.80
2018-06-12T00:39:58.400Z,9.27
2018-06-12T00:42:26.901Z,10.33
2018-06-12T00:44:55.389Z,9.20
2018-06-12T00:47:23.865Z,10.40
2018-06-12T00:49:52.351Z,10.50
2018-06-12T00:52:20.841Z,10.47
2018-06-12T00:54:48.995Z,9.80
2018-06-12T00:57:17.563Z,8.53
2018-06-12T00:59:46.068Z,10.00
2018-06-12T01:02:14.577Z,9.93
2018-06-12T01:04:43.092Z,9.53
2018-06-12T01:07:11.567Z,8.63
2018-06-12T01:09:40.045Z,10.33
2018-06-12T01:12:08.120Z,9.60
2018-06-12T01:14:36.615Z,8.87
2018-06-12T01:17:04.778Z,10.23
2018-06-12T01:19:33.283Z,10.27
2018-06-12T01:22:01.759Z,9.30
2018-06-12T01:24:29.927Z,9.80
2018-06-12T01:26:58.079Z,9.43
2018-06-12T01:29:26.564Z,8.47
2018-06-12T01:31:55.062Z,10.53
2018-06-12T01:34:23.548Z,10.10
2018-06-12T01:36:52.120Z,10.03
2018-06-12T01:39:20.590Z,9.97
2018-06-12T01:41:48.825Z,9.77
2018-06-12T01:44:17.050Z,10.03
2018-06-12T01:46:45.564Z,10.23
2018-06-12T01:49:14.091Z,11.30
2018-06-12T01:51:42.574Z,9.80
2018-06-12T01:54:11.064Z,8.97
2018-06-12T01:56:39.246Z,11.10
2018-06-12T01:59:07.726Z,10.50
2018-06-12T02:01:36.308Z,10.60
2018-06-12T02:04:04.528Z,10.13
2018-06-12T02:06:32.742Z,10.57
2018-06-12T02:09:01.230Z,10.60
2018-06-12T02:11:29.383Z,11.37
2018-06-12T02:13:57.892Z,9.57
2018-06-12T02:16:26.061Z,10.73
2018-06-12T02:18:54.236Z,10.50
2018-06-12T02:21:22.694Z,10.60
2018-06-12T02:23:51.174Z,11.67
2018-06-12T02:26:19.345Z,9.83
2018-06-12T02:28:47.538Z,10.27
2018-06-12T02:31:15.719Z,9.80
2018-06-12T02:33:43.874Z,10.27
2018-06-12T02:36:12.033Z,10.47
2018-06-12T02:38:40.531Z,11.50
2018-06-12T02:41:09.021Z,9.80
2018-06-12T02:43:37.496Z,12.53
2018-06-12T02:46:06.038Z,10.33
2018-06-12T02:48:34.484Z,10.77
2018-06-12T02:51:03.159Z,11.53
2018-06-12T02:53:31.350Z,11.10
2018-06-12T02:55:59.858Z,11.03
2018-06-12T02:58:28.029Z,11.83
2018-06-12T03:00:56.507Z,11.03
2018-06-12T03:03:25.131Z,12.27
2018-06-12T03:05:54.169Z,11.43
2018-06-12T03:08:22.505Z,11.27
2018-06-12T03:10:50.996Z,12.57
2018-06-12T03:13:19.228Z,11.43
2018-06-12T03:15:47.711Z,12.60
2018-06-12T03:18:15.948Z,11.23
2018-06-12T03:20:44.548Z,13.47
2018-06-12T03:23:13.064Z,12.20
2018-06-12T03:25:41.512Z,12.80
2018-06-12T03:28:09.705Z,12.53
2018-06-12T03:30:38.229Z,12.70
2018-06-12T03:33:06.737Z,14.40
2018-06-12T03:35:34.967Z,13.73
2018-06-12T03:38:03.477Z,13.70
2018-06-12T03:40:31.671Z,13.30
2018-06-12T03:43:00.144Z,13.23
2018-06-12T03:45:28.633Z,14.20
2018-06-12T03:47:56.804Z,13.97
2018-06-12T03:50:25.007Z,14.27
2018-06-12T03:52:53.482Z,14.50
2018-06-12T03:55:21.995Z,14.37
2018-06-12T03:57:50.163Z,13.40
2018-06-12T04:00:25.226Z,13.70
2018-06-12T04:02:53.997Z,14.10
2018-06-12T04:05:22.497Z,13.43
2018-06-12T04:07:51.813Z,13.90
2018-06-12T04:10:20.698Z,12.87
2018-06-12T04:12:49.462Z,12.47
2018-06-12T04:15:18.369Z,12.90
2018-06-12T04:17:47.353Z,13.13
2018-06-12T04:20:16.272Z,13.40
2018-06-12T04:22:44.985Z,11.50
2018-06-12T04:25:14.445Z,10.27
2018-06-12T04:27:42.653Z,9.60
2018-06-12T04:30:11.313Z,8.73
2018-06-12T04:32:39.944Z,8.13
2018-06-12T04:35:08.110Z,8.43
2018-06-12T04:37:37.349Z,7.70
2018-06-12T04:40:06.039Z,8.10
2018-06-12T04:42:34.213Z,7.60
2018-06-12T04:45:02.854Z,7.00
2018-06-12T04:47:31.078Z,6.67
2018-06-12T04:49:59.589Z,6.30
2018-06-12T04:52:28.078Z,5.97
2018-06-12T04:54:56.592Z,6.77
2018-06-12T04:57:24.741Z,6.30
2018-06-12T04:59:53.199Z,5.50
2018-06-12T05:02:21.931Z,6.07
2018-06-12T05:04:50.434Z,5.43
2018-06-12T05:07:18.609Z,5.90
2018-06-12T05:09:47.256Z,5.20
2018-06-12T05:12:15.509Z,4.80
2018-06-12T05:14:43.704Z,5.20
2018-06-12T05:17:11.888Z,6.33
2018-06-12T05:19:40.107Z,6.00
2018-06-12T05:22:08.580Z,6.33
2018-06-12T05:24:38.046Z,5.90
2018-06-12T05:27:06.615Z,5.50
2018-06-12T05:29:34.796Z,5.87
2018-06-12T05:32:02.938Z,5.80
2018-06-12T05:34:31.444Z,5.60
2018-06-12T05:36:59.983Z,5.47
2018-06-12T05:39:28.630Z,6.03
2018-06-12T05:41:57.118Z,5.83
2018-06-12T05:44:25.764Z,6.20
2018-06-12T05:46:53.964Z,7.07
2018-06-12T05:49:22.446Z,6.50
2018-06-12T05:51:50.944Z,6.07
2018-06-12T05:54:20.552Z,6.50
2018-06-12T05:56:48.748Z,7.40
2018-06-12T05:59:17.243Z,5.93
2018-06-12T06:01:45.799Z,6.17
2018-06-12T06:04:14.312Z,5.73
2018-06-12T06:06:42.815Z,5.83
2018-06-12T06:09:11.306Z,6.70
2018-06-12T06:11:39.458Z,7.80
2018-06-12T06:14:08.009Z,6.30
2018-06-12T06:16:36.501Z,6.77
2018-06-12T06:19:04.973Z,6.10
2018-06-12T06:21:33.221Z,6.50
2018-06-12T06:24:01.730Z,6.00
2018-06-12T06:26:29.895Z,6.83
2018-06-12T06:28:58.418Z,5.40
2018-06-12T06:31:26.602Z,6.20
2018-06-12T06:33:55.155Z,6.43
2018-06-12T06:36:23.977Z,5.27
2018-06-12T06:38:52.541Z,5.93
2018-06-12T06:41:21.004Z,5.43
2018-06-12T06:43:49.490Z,5.40
2018-06-12T06:46:17.981Z,4.80
2018-06-12T06:48:46.518Z,6.10
2018-06-12T06:51:15.031Z,4.87
2018-06-12T06:53:43.501Z,5.63
2018-06-12T06:56:11.980Z,4.70
2018-06-12T06:58:40.571Z,5.73
2018-06-12T07:01:09.102Z,5.80
2018-06-12T07:03:37.589Z,5.50
2018-06-12T07:06:06.210Z,6.10
2018-06-12T07:08:34.746Z,4.27
2018-06-12T07:11:03.260Z,5.10
2018-06-12T07:13:31.458Z,6.43
2018-06-12T07:15:59.992Z,6.30
2018-06-12T07:18:28.211Z,6.47
2018-06-12T07:21:05.712Z,5.90
2018-06-12T07:23:34.248Z,6.13
2018-06-12T07:26:02.958Z,4.13
2018-06-12T07:28:31.492Z,4.70
2018-06-12T07:30:59.743Z,4.27
2018-06-12T07:33:28.241Z,4.90
2018-06-12T07:35:56.733Z,5.30
2018-06-12T07:38:25.289Z,5.13
2018-06-12T07:40:53.801Z,5.13
2018-06-12T07:43:22.314Z,4.40
2018-06-12T07:45:50.783Z,4.20
2018-06-12T07:48:19.287Z,5.60
2018-06-12T07:50:47.771Z,4.77
2018-06-12T07:53:15.925Z,4.30
2018-06-12T07:55:44.451Z,4.73
2018-06-12T07:58:12.615Z,4.63
2018-06-12T08:00:41.156Z,4.73
2018-06-12T08:03:09.321Z,4.80
2018-06-12T08:05:37.854Z,5.10
2018-06-12T08:08:06.024Z,5.50
2018-06-12T08:10:34.533Z,5.27
2018-06-12T08:13:03.076Z,5.00
2018-06-12T08:15:31.619Z,4.77
2018-06-12T08:18:00.138Z,5.00
2018-06-12T08:20:28.638Z,5.23
2018-06-12T08:22:57.176Z,4.07
2018-06-12T08:25:25.670Z,4.87
2018-06-12T08:27:54.168Z,4.30
2018-06-12T08:30:22.805Z,5.20
2018-06-12T08:32:51.230Z,5.60
2018-06-12T08:35:19.722Z,5.03
2018-06-12T08:37:48.202Z,5.10
2018-06-12T08:40:16.344Z,4.60
2018-06-12T08:42:44.845Z,3.87
2018-06-12T08:45:13.404Z,4.30
2018-06-12T08:47:41.908Z,4.30
2018-06-12T08:50:10.390Z,3.60
2018-06-12T08:52:38.949Z,3.77
2018-06-12T08:55:07.447Z,3.67
2018-06-12T08:57:35.918Z,19.40
2018-06-12T09:00:04.501Z,9.20
2018-06-12T09:02:33.004Z,5.20
2018-06-12T09:05:01.462Z,4.47
2018-06-12T09:07:29.945Z,4.53
2018-06-12T09:09:58.487Z,3.80
2018-06-12T09:12:27.010Z,3.33
2018-06-12T09:14:55.470Z,3.90
2018-06-12T09:17:23.983Z,4.23
2018-06-12T09:19:52.595Z,3.47
2018-06-12T09:22:21.041Z,3.63
2018-06-12T09:24:49.547Z,3.77
2018-06-12T09:27:18.047Z,3.70
2018-06-12T09:29:46.212Z,4.47
2018-06-12T09:32:14.384Z,4.53
2018-06-12T09:34:42.889Z,4.17
2018-06-12T09:37:11.353Z,3.93
2018-06-12T09:39:39.515Z,4.13
2018-06-12T09:42:07.722Z,3.90
2018-06-12T09:44:36.171Z,4.40
2018-06-12T09:47:04.334Z,4.37
2018-06-12T09:49:33.121Z,3.97
2018-06-12T09:52:01.625Z,4.20
2018-06-12T09:54:29.809Z,4.13
2018-06-12T09:56:58.304Z,4.20
2018-06-12T09:59:26.821Z,3.97
2018-06-12T10:01:55.015Z,4.80
2018-06-12T10:04:23.511Z,5.30
2018-06-12T10:06:52.047Z,4.60
2018-06-12T10:09:20.514Z,5.03
2018-06-12T10:11:49.117Z,5.50
2018-06-12T10:14:17.623Z,6.10
2018-06-12T10:16:46.115Z,6.90
2018-06-12T10:19:14.613Z,6.63
2018-06-12T10:21:42.777Z,5.60
2018-06-12T10:24:11.271Z,6.60
2018-06-12T10:26:39.453Z,5.93
2018-06-12T10:29:07.946Z,5.10
2018-06-12T10:31:36.403Z,5.37
2018-06-12T10:34:04.917Z,5.07
2018-06-12T10:36:33.491Z,5.03
2018-06-12T10:39:01.718Z,5.93
2018-06-12T10:41:29.994Z,6.10
2018-06-12T10:43:58.502Z,4.80
2018-06-12T10:46:26.662Z,6.00
2018-06-12T10:48:54.913Z,5.20
2018-06-12T10:51:23.433Z,4.53
2018-06-12T10:53:52.055Z,4.50
2018-06-12T10:56:20.531Z,5.07
2018-06-12T10:58:49.059Z,5.37
2018-06-12T11:01:17.544Z,4.93
2018-06-12T11:03:46.039Z,5.43
2018-06-12T11:06:14.535Z,6.23
2018-06-12T11:08:43.059Z,7.80
2018-06-12T11:11:12.407Z,6.27
2018-06-12T11:13:40.988Z,5.43
2018-06-12T11:16:09.492Z,5.37
2018-06-12T11:18:37.997Z,4.90
2018-06-12T11:21:06.593Z,5.67
2018-06-12T11:23:35.110Z,4.97
2018-06-12T11:26:03.657Z,5.90
2018-06-12T11:28:32.174Z,4.83
2018-06-12T11:31:00.686Z,5.50
2018-06-12T11:33:28.860Z,5.00
2018-06-12T11:35:57.048Z,6.50
2018-06-12T11:38:25.546Z,6.13
2018-06-12T11:40:54.095Z,6.07
2018-06-12T11:43:22.915Z,6.10
2018-06-12T11:45:51.486Z,6.07
2018-06-12T11:48:20.014Z,6.10
2018-06-12T11:50:48.212Z,5.87
2018-06-12T11:53:16.807Z,4.87
2018-06-12T11:55:45.323Z,5.63
2018-06-12T11:58:13.832Z,4.80
2018-06-12T12:00:42.369Z,5.03
2018-06-12T12:03:10.600Z,4.70
2018-06-12T12:05:39.113Z,5.43
2018-06-12T12:08:07.633Z,5.27
2018-06-12T12:10:35.810Z,4.40
2018-06-12T12:13:04.327Z,5.80
2018-06-12T12:15:32.800Z,5.10
2018-06-12T12:18:01.371Z,5.00
2018-06-12T12:20:29.545Z,4.87
2018-06-12T12:22:58.037Z,5.10
2018-06-12T12:25:26.562Z,4.73
2018-06-12T12:27:55.086Z,4.90
2018-06-12T12:30:23.277Z,4.90
2018-06-12T12:32:51.753Z,3.60
2018-06-12T12:35:20.298Z,5.20
2018-06-12T12:37:48.495Z,5.87
2018-06-12T12:40:17.044Z,5.17
2018-06-12T12:42:45.533Z,4.80
2018-06-12T12:45:14.039Z,4.90
2018-06-12T12:47:42.555Z,6.30
2018-06-12T12:50:11.029Z,6.83
2018-06-12T12:52:39.919Z,5.63
2018-06-12T12:55:08.423Z,5.80
2018-06-12T12:57:36.924Z,5.93
2018-06-12T13:00:05.520Z,5.83
2018-06-12T13:02:34.054Z,6.53
2018-06-12T13:05:02.246Z,6.37
2018-06-12T13:07:30.783Z,5.83
2018-06-12T13:09:59.304Z,5.30
2018-06-12T13:12:27.830Z,5.37
2018-06-12T13:14:56.028Z,6.07
2018-06-12T13:17:24.503Z,6.07
2018-06-12T13:19:53.014Z,6.13
2018-06-12T13:22:21.537Z,5.70
2018-06-12T13:24:49.763Z,6.23
2018-06-12T13:27:17.945Z,5.63
2018-06-12T13:29:46.872Z,5.70
2018-06-12T13:32:15.489Z,5.53
2018-06-12T13:34:44.052Z,7.33
2018-06-12T13:37:12.554Z,6.27
2018-06-12T13:39:41.062Z,5.90
2018-06-12T13:42:09.619Z,5.80
2018-06-12T13:44:38.160Z,5.77
2018-06-12T13:47:06.449Z,6.13
2018-06-12T13:49:37.816Z,6.67
2018-06-12T13:52:06.005Z,5.27
2018-06-12T13:54:34.561Z,6.00
2018-06-12T13:57:02.720Z,5.47
2018-06-12T13:59:31.259Z,6.40
2018-06-12T14:01:59.482Z,6.90
2018-06-12T14:04:27.675Z,6.50
2018-06-12T14:06:56.224Z,5.57
2018-06-12T14:09:24.423Z,6.50
2018-06-12T14:11:52.970Z,6.80
2018-06-12T14:14:21.552Z,6.10
2018-06-12T14:16:50.092Z,6.87
2018-06-12T14:19:18.589Z,6.17
2018-06-12T14:21:47.842Z,7.90
2018-06-12T14:24:16.366Z,6.60
2018-06-12T14:26:44.664Z,6.40
2018-06-12T14:29:13.176Z,6.20
2018-06-12T14:31:41.353Z,7.37
2018-06-12T14:34:09.557Z,8.30
2018-06-12T14:36:38.779Z,10.10
2018-06-12T14:39:08.815Z,7.47
2018-06-12T14:41:37.377Z,7.70
2018-06-12T14:44:05.977Z,7.20
2018-06-12T14:46:34.606Z,6.23
2018-06-12T14:49:02.832Z,7.10
2018-06-12T14:51:31.045Z,6.73
2018-06-12T14:53:59.599Z,8.60
2018-06-12T14:56:27.815Z,8.17
2018-06-12T14:58:56.032Z,9.10
2018-06-12T15:01:24.233Z,8.57
2018-06-12T15:03:52.754Z,9.73
2018-06-12T15:06:21.413Z,8.33
2018-06-12T15:08:49.975Z,9.27
2018-06-12T15:11:18.203Z,9.83
2018-06-12T15:13:47.243Z,12.60
2018-06-12T15:16:16.321Z,13.70
2018-06-12T15:18:45.337Z,11.43
2018-06-12T15:21:13.881Z,8.20
2018-06-12T15:23:42.537Z,7.67
2018-06-12T15:26:11.108Z,7.57
2018-06-12T15:28:39.692Z,7.77
2018-06-12T15:31:07.937Z,6.03
2018-06-12T15:33:36.542Z,7.00
2018-06-12T15:36:05.413Z,7.40
2018-06-12T15:38:33.621Z,7.43
2018-06-12T15:41:02.240Z,8.53
2018-06-12T15:43:30.887Z,8.57
2018-06-12T15:45:59.500Z,7.80
2018-06-12T15:48:28.414Z,9.97
2018-06-12T15:50:56.695Z,8.77
2018-06-12T15:53:25.372Z,6.40
2018-06-12T15:55:53.869Z,7.40
2018-06-12T15:58:22.124Z,7.77
2018-06-12T16:00:51.292Z,7.53
2018-06-12T16:03:20.130Z,7.10
2018-06-12T16:05:48.724Z,8.43
2018-06-12T16:08:17.946Z,6.97
2018-06-12T16:10:46.512Z,7.17
2018-06-12T16:13:15.167Z,8.00
2018-06-12T16:15:43.919Z,8.20
2018-06-12T16:18:12.725Z,7.60
2018-06-12T16:20:41.273Z,7.20
2018-06-12T16:23:10.211Z,7.70
2018-06-12T16:25:39.097Z,7.17
2018-06-12T16:28:07.646Z,6.53
2018-06-12T16:30:36.232Z,7.10
2018-06-12T16:33:04.800Z,7.13
2018-06-12T16:35:33.900Z,7.80
2018-06-12T16:38:03.226Z,7.90
2018-06-12T16:40:31.816Z,7.17
2018-06-12T16:43:00.494Z,6.40
2018-06-12T16:45:29.351Z,7.53
2018-06-12T16:47:57.653Z,8.60
2018-06-12T16:50:26.273Z,8.47
2018-06-12T16:52:55.455Z,7.63
2018-06-12T16:55:23.703Z,7.07
2018-06-12T16:57:52.073Z,7.10
2018-06-12T17:00:20.681Z,7.10
2018-06-12T17:02:49.278Z,6.93
2018-06-12T17:05:17.930Z,8.00
2018-06-12T17:07:46.573Z,8.87
2018-06-12T17:10:17.467Z,8.33
2018-06-12T17:12:47.062Z,6.90
2018-06-12T17:15:16.310Z,8.47
2018-06-12T17:17:45.215Z,8.10
2018-06-12T17:20:14.845Z,7.87
2018-06-12T17:22:43.939Z,8.13
2018-06-12T17:25:12.166Z,8.80
2018-06-12T17:27:46.994Z,9.13
2018-06-12T17:30:15.634Z,8.20
2018-06-12T17:32:44.948Z,7.90
2018-06-12T17:35:13.761Z,9.87
2018-06-12T17:37:41.993Z,8.17
2018-06-12T17:40:10.700Z,8.07
2018-06-12T17:42:40.978Z,9.60
2018-06-12T17:45:09.557Z,9.93
2018-06-12T17:47:38.503Z,8.67
2018-06-12T17:50:06.732Z,8.53
2018-06-12T17:52:37.592Z,9.57
2018-06-12T17:55:06.522Z,8.00
2018-06-12T17:57:35.560Z,9.73
2018-06-12T18:00:05.354Z,9.20
2018-06-12T18:02:33.658Z,5.70
2018-06-12T18:05:03.695Z,4.60
2018-06-12T18:07:32.334Z,3.50
2018-06-12T18:10:01.519Z,3.17
2018-06-12T18:12:29.822Z,3.47
2018-06-12T18:15:01.287Z,3.77
2018-06-12T18:17:30.249Z,3.80
2018-06-12T18:20:02.499Z,3.70
2018-06-12T18:22:31.736Z,3.57
2018-06-12T18:25:02.867Z,3.60
2018-06-12T18:27:31.523Z,3.60
2018-06-12T18:30:00.322Z,4.33
2018-06-12T18:32:30.308Z,3.67
2018-06-12T18:35:00.172Z,4.20
2018-06-12T18:37:30.333Z,4.00
2018-06-12T18:39:59.656Z,4.47
2018-06-12T18:42:28.436Z,4.70
2018-06-12T18:44:57.591Z,4.67
2018-06-12T18:47:26.144Z,4.33
2018-06-12T18:49:54.826Z,3.87
2018-06-12T18:52:23.489Z,4.30
2018-06-12T18:54:58.639Z,3.67
2018-06-12T18:57:29.068Z,3.83
2018-06-12T18:59:58.754Z,5.00
2018-06-12T19:02:27.352Z,4.53
2018-06-12T19:05:00.837Z,4.90
2018-06-12T19:07:29.207Z,5.77
2018-06-12T19:09:59.465Z,6.57
2018-06-12T19:12:29.931Z,5.90
2018-06-12T19:14:58.629Z,5.30
2018-06-12T19:17:27.271Z,5.83
2018-06-12T19:19:55.974Z,6.97
2018-06-12T19:22:27.700Z,6.40
2018-06-12T19:24:57.889Z,6.70
2018-06-12T19:27:26.955Z,5.60
2018-06-12T19:29:57.019Z,5.77
2018-06-12T19:32:25.442Z,6.50
2018-06-12T19:34:55.028Z,5.27
2018-06-12T19:37:25.833Z,5.30
2018-06-12T19:39:55.042Z,5.80
2018-06-12T19:42:24.617Z,7.13
2018-06-12T19:44:53.632Z,6.50
2018-06-12T19:47:22.704Z,6.60
2018-06-12T19:49:51.704Z,7.50
2018-06-12T19:52:20.015Z,6.20
2018-06-12T19:54:48.748Z,5.90
2018-06-12T19:57:19.512Z,6.30
2018-06-12T19:59:48.230Z,6.23
2018-06-12T20:02:18.637Z,6.27
2018-06-12T20:04:48.014Z,6.37
2018-06-12T20:07:16.316Z,6.83
2018-06-12T20:09:45.824Z,5.50
2018-06-12T20:12:15.183Z,6.80
2018-06-12T20:14:45.921Z,6.17
2018-06-12T20:17:14.572Z,7.60
2018-06-12T20:19:45.220Z,4.90
2018-06-12T20:22:14.374Z,6.00
2018-06-12T20:24:46.068Z,5.50
2018-06-12T20:27:14.775Z,4.37
2018-06-12T20:29:43.424Z,5.70
2018-06-12T20:32:12.073Z,4.77
2018-06-12T20:34:41.101Z,4.50
2018-06-12T20:37:09.444Z,5.10
2018-06-12T20:39:39.072Z,6.80
2018-06-12T20:42:08.441Z,6.00
2018-06-12T20:44:36.688Z,5.83
2018-06-12T20:47:04.942Z,6.60
2018-06-12T20:49:33.590Z,6.63
2018-06-12T20:52:02.248Z,5.77
2018-06-12T20:54:30.862Z,6.00
2018-06-12T20:56:59.261Z,5.73
2018-06-12T20:59:28.045Z,5.33
2018-06-12T21:01:56.689Z,5.10
2018-06-12T21:04:24.946Z,5.47
2018-06-12T21:06:53.549Z,6.07
2018-06-12T21:09:22.795Z,6.20
2018-06-12T21:11:51.392Z,5.80
2018-06-12T21:14:19.776Z,6.73
2018-06-12T21:16:48.512Z,5.67
2018-06-12T21:19:16.776Z,5.57
2018-06-12T21:21:45.358Z,6.27
2018-06-12T21:24:13.642Z,6.03
2018-06-12T21:26:41.890Z,4.90
2018-06-12T21:29:10.696Z,6.23
2018-06-12T21:31:39.291Z,6.20
2018-06-12T21:34:14.024Z,6.30
2018-06-12T21:36:43.176Z,6.00
2018-06-12T21:39:11.760Z,6.60
2018-06-12T21:41:39.940Z,6.50
2018-06-12T21:44:08.168Z,6.73
2018-06-12T21:46:36.764Z,7.37
2018-06-12T21:49:05.044Z,6.90
2018-06-12T21:51:33.606Z,7.13
2018-06-12T21:54:02.174Z,7.60
2018-06-12T21:56:30.359Z,8.00
2018-06-12T21:58:58.601Z,8.13
2018-06-12T22:01:26.834Z,8.87
2018-06-12T22:03:55.025Z,7.80
2018-06-12T22:06:23.574Z,8.10
2018-06-12T22:08:51.980Z,8.90
2018-06-12T22:11:20.155Z,8.33
2018-06-12T22:13:48.608Z,8.57
2018-06-12T22:16:21.043Z,7.50
2018-06-12T22:18:49.981Z,8.50
2018-06-12T22:21:19.474Z,7.37
2018-06-12T22:23:48.038Z,7.20
2018-06-12T22:26:16.549Z,7.40
2018-06-12T22:28:45.067Z,7.37
2018-06-12T22:31:13.574Z,8.40
2018-06-12T22:33:42.073Z,9.30
2018-06-12T22:36:10.596Z,7.97
2018-06-12T22:38:39.106Z,9.30
2018-06-12T22:41:07.325Z,7.37
2018-06-12T22:43:35.859Z,9.17
2018-06-12T22:46:04.081Z,9.00
2018-06-12T22:48:32.289Z,10.33
2018-06-12T22:51:00.833Z,10.90
2018-06-12T22:53:29.099Z,11.43
2018-06-12T22:55:57.281Z,12.60
2018-06-12T22:58:25.805Z,13.27
2018-06-12T23:00:54.029Z,15.30
2018-06-12T23:03:22.541Z,15.00
2018-06-12T23:05:51.166Z,14.37
2018-06-12T23:08:19.748Z,14.20
2018-06-12T23:10:47.937Z,13.83
2018-06-12T23:13:16.129Z,14.13
2018-06-12T23:15:44.626Z,14.40
2018-06-12T23:18:13.023Z,13.60
2018-06-12T23:20:46.963Z,11.97
2018-06-12T23:23:15.623Z,13.80
2018-06-12T23:25:44.221Z,14.90
2018-06-12T23:28:12.727Z,14.63
2018-06-12T23:30:43.747Z,14.83
2018-06-12T23:33:12.388Z,15.30
2018-06-12T23:35:40.659Z,13.10
2018-06-12T23:38:09.789Z,12.80
2018-06-12T23:40:40.990Z,11.60
2018-06-12T23:43:09.529Z,11.47
2018-06-12T23:45:38.077Z,9.33
2018-06-12T23:48:06.776Z,8.70
2018-06-12T23:50:35.550Z,8.27
2018-06-12T23:53:08.151Z,7.77
2018-06-12T23:55:36.394Z,7.80
2018-06-12T23:58:04.969Z,7.40
